createdAt,value
2023-04-24T00:06:09.983Z,10.32
2023-04-24T00:12:52.205Z,11.65
2023-04-24T00:19:34.381Z,13.02
2023-04-24T00:26:16.548Z,10.50
2023-04-24T00:32:59.099Z,11.00
2023-04-24T00:39:41.575Z,10.30
2023-04-24T00:46:23.914Z,11.57
2023-04-24T00:53:06.653Z,12.25
2023-04-24T00:59:48.901Z,10.68
2023-04-24T01:06:32.264Z,10.55
2023-04-24T01:13:14.905Z,11.70
2023-04-24T01:20:01.011Z,12.23
2023-04-24T01:26:43.206Z,11.35
2023-04-24T01:33:25.459Z,10.02
2023-04-24T01:40:08.488Z,11.07
2023-04-24T01:46:51.573Z,10.65
2023-04-24T01:53:34.166Z,11.88
2023-04-24T02:00:16.419Z,12.88
2023-04-24T02:06:58.917Z,12.88
2023-04-24T02:13:41.175Z,13.73
2023-04-24T02:20:23.791Z,14.27
2023-04-24T02:27:06.122Z,14.48
2023-04-24T02:33:48.620Z,15.65
2023-04-24T02:40:31.307Z,17.00
2023-04-24T02:47:13.466Z,14.90
2023-04-24T02:53:55.752Z,16.13
2023-04-24T03:00:37.994Z,15.75
2023-04-24T03:07:21.771Z,17.60
2023-04-24T03:14:04.102Z,15.52
2023-04-24T03:20:49.451Z,15.98
2023-04-24T03:27:31.798Z,16.85
2023-04-24T03:34:20.541Z,16.08
2023-04-24T03:41:03.024Z,16.73
2023-04-24T03:47:58.999Z,15.32
2023-04-24T03:54:41.273Z,15.95
2023-04-24T04:01:24.160Z,15.43
2023-04-24T04:08:17.358Z,15.30
2023-04-24T04:15:00.310Z,13.38
2023-04-24T04:21:42.846Z,13.05
2023-04-24T04:28:40.741Z,12.25
2023-04-24T04:35:23.218Z,11.68
2023-04-24T04:42:07.880Z,11.65
2023-04-24T04:48:57.779Z,11.20
2023-04-24T04:55:41.360Z,11.97
2023-04-24T05:02:29.987Z,12.27
2023-04-24T05:09:12.902Z,11.38
2023-04-24T05:16:21.335Z,11.88
2023-04-24T05:23:05.828Z,11.18
2023-04-24T05:29:48.715Z,10.15
2023-04-24T05:36:31.950Z,11.02
2023-04-24T05:43:14.572Z,12.27
2023-04-24T05:49:56.803Z,11.30
2023-04-24T05:56:41.838Z,13.63
2023-04-24T06:03:28.370Z,12.90
2023-04-24T06:10:11.654Z,13.87
2023-04-24T06:16:59.776Z,12.98
2023-04-24T06:23:50.685Z,13.68
2023-04-24T06:30:33.390Z,12.10
2023-04-24T06:37:16.610Z,14.07
2023-04-24T06:43:58.841Z,14.35
2023-04-24T06:50:41.114Z,14.00
2023-04-24T06:57:23.330Z,14.23
2023-04-24T07:04:06.089Z,12.05
2023-04-24T07:10:48.525Z,15.38
2023-04-24T07:17:30.790Z,24.35
2023-04-24T07:24:13.996Z,12.93
2023-04-24T07:30:56.291Z,13.63
2023-04-24T07:37:38.554Z,12.30
2023-04-24T07:44:21.094Z,12.00
2023-04-24T07:51:03.446Z,12.10
2023-04-24T07:57:45.697Z,12.30
2023-04-24T08:04:27.991Z,12.82
2023-04-24T08:11:10.530Z,12.40
2023-04-24T08:17:53.037Z,12.43
2023-04-24T08:24:35.181Z,11.85
2023-04-24T08:31:17.399Z,11.55
2023-04-24T08:37:59.594Z,12.60
2023-04-24T08:44:41.966Z,12.23
2023-04-24T08:51:26.324Z,13.50
2023-04-24T09:04:52.133Z,18.35
2023-04-24T09:11:34.497Z,12.95
2023-04-24T09:18:18.359Z,13.65
2023-04-24T09:25:10.010Z,13.70
2023-04-24T09:31:52.369Z,14.68
2023-04-24T09:38:38.389Z,14.68
2023-04-24T09:45:21.592Z,14.10
2023-04-24T09:52:12.447Z,13.98
2023-04-24T09:58:54.589Z,14.10
2023-04-24T10:05:39.785Z,15.20
2023-04-24T10:12:23.925Z,17.88
2023-04-24T10:19:06.568Z,14.70
2023-04-24T10:25:51.803Z,10.60
2023-04-24T10:39:17.674Z,7.07
2023-04-24T10:46:07.802Z,5.88
2023-04-24T10:52:55.548Z,6.38
2023-04-24T10:59:38.516Z,5.20
2023-04-24T11:06:37.268Z,4.27
2023-04-24T11:13:23.814Z,3.22
2023-04-24T11:20:26.117Z,3.00
2023-04-24T11:27:20.656Z,3.72
2023-04-24T11:34:15.278Z,3.70
2023-04-24T11:40:57.621Z,6.20
2023-04-24T11:47:41.098Z,4.28
2023-04-24T11:54:23.565Z,3.70
2023-04-24T12:01:06.406Z,3.67
2023-04-24T12:07:48.537Z,3.13
2023-04-24T12:14:30.912Z,3.30
2023-04-24T12:21:23.174Z,2.80
2023-04-24T12:28:05.775Z,4.25
2023-04-24T12:34:48.334Z,3.30
2023-04-24T12:41:32.623Z,3.10
2023-04-24T12:48:17.766Z,2.20
2023-04-24T12:55:01.892Z,1.88
2023-04-24T13:01:44.194Z,2.33
2023-04-24T13:08:26.412Z,2.08
2023-04-24T13:15:09.279Z,4.80
2023-04-24T13:21:51.470Z,9.35
2023-04-24T13:28:33.586Z,10.60
2023-04-24T13:35:15.941Z,9.13
2023-04-24T13:41:59.104Z,8.80
2023-04-24T13:48:41.302Z,6.60
2023-04-24T13:55:23.580Z,4.72
2023-04-24T14:02:05.983Z,3.88
2023-04-24T14:08:49.139Z,3.10
2023-04-24T14:15:31.621Z,2.50
2023-04-24T14:22:13.783Z,2.88
2023-04-24T14:29:04.144Z,9.02
2023-04-24T14:35:53.640Z,14.35
2023-04-24T14:42:36.605Z,11.82
2023-04-24T14:49:18.791Z,3.88
2023-04-24T14:56:01.039Z,3.50
2023-04-24T15:02:45.698Z,3.67
2023-04-24T15:09:28.428Z,4.70
2023-04-24T15:16:10.883Z,10.00
2023-04-24T15:22:53.167Z,6.95
2023-04-24T15:29:35.607Z,3.78
2023-04-24T15:36:18.932Z,4.25
2023-04-24T15:43:01.407Z,4.28
2023-04-24T15:49:43.636Z,4.17
2023-04-24T15:56:25.962Z,3.60
2023-04-24T16:03:10.036Z,3.00
2023-04-24T16:09:52.681Z,4.68
2023-04-24T16:16:35.250Z,3.58
2023-04-24T16:23:17.388Z,4.07
2023-04-24T16:29:59.872Z,4.20
2023-04-24T16:36:43.590Z,3.80
2023-04-24T16:56:54.382Z,4.63
2023-04-24T17:03:36.664Z,4.63
2023-04-24T17:10:18.917Z,6.25
2023-04-24T17:17:01.410Z,3.13
2023-04-24T17:23:43.908Z,3.50
2023-04-24T17:30:26.095Z,1.27
2023-04-24T17:37:08.357Z,1.10
2023-04-24T17:43:50.564Z,1.42
2023-04-24T17:50:32.735Z,1.20
2023-04-24T17:57:14.964Z,1.42
2023-04-24T18:03:57.424Z,1.85
2023-04-24T18:10:39.908Z,1.58
2023-04-24T18:17:22.270Z,1.48
2023-04-24T18:24:05.144Z,1.88
2023-04-24T18:30:47.988Z,1.60
2023-04-24T18:37:32.873Z,1.80
2023-04-24T18:44:15.425Z,1.90
2023-04-24T18:50:57.880Z,11.70
2023-04-24T18:57:40.119Z,8.15
2023-04-24T19:04:22.592Z,8.55
2023-04-24T19:11:05.754Z,7.93
2023-04-24T19:17:50.647Z,4.13
2023-04-24T19:24:33.748Z,3.38
2023-04-24T19:31:16.051Z,4.40
2023-04-24T19:37:58.369Z,3.20
2023-04-24T19:44:40.491Z,1.83
2023-04-24T19:51:22.778Z,2.17
2023-04-24T19:58:05.500Z,1.55
2023-04-24T20:04:47.844Z,1.95
2023-04-24T20:11:30.131Z,3.83
2023-04-24T20:18:12.556Z,3.22
2023-04-24T20:24:55.731Z,3.88
2023-04-24T20:31:38.910Z,2.60
2023-04-24T20:38:22.529Z,2.38
2023-04-24T20:45:05.453Z,5.90
2023-04-24T20:51:47.722Z,4.20
2023-04-24T20:58:30.026Z,5.63
2023-04-24T21:05:12.265Z,6.13
2023-04-24T21:11:54.435Z,5.40
2023-04-24T21:18:41.258Z,4.60
2023-04-24T21:25:23.564Z,5.47
2023-04-24T21:32:05.826Z,10.40
2023-04-24T21:38:47.985Z,31.48
2023-04-24T21:45:30.148Z,34.60
2023-04-24T21:52:12.268Z,5.68
2023-04-24T21:58:54.441Z,3.65
2023-04-24T22:05:37.052Z,3.53
2023-04-24T22:12:19.311Z,4.57
2023-04-24T22:19:01.675Z,4.57
2023-04-24T22:25:43.818Z,5.07
2023-04-24T22:32:26.361Z,4.13
2023-04-24T22:39:10.583Z,3.95
2023-04-24T22:45:52.705Z,4.00
2023-04-24T22:52:35.838Z,4.70
2023-04-24T22:59:18.132Z,4.22
2023-04-24T23:06:00.294Z,5.95
2023-04-24T23:12:42.599Z,5.35
2023-04-24T23:19:25.180Z,4.35
2023-04-24T23:26:07.343Z,5.25
2023-04-24T23:32:49.569Z,4.32
2023-04-24T23:39:32.588Z,3.53
2023-04-24T23:46:14.831Z,3.83
2023-04-24T23:52:57.020Z,3.33
2023-04-24T23:59:39.272Z,2.67
